Time;durP1;ratioP1;P1;durP2;ratioP2;P2;SDS_P1;SDS_P2;PMS_P1;PMS_P2;Temp;Humidity;BMP_temperature;BMP_pressure;BME280_temperature;BME280_humidity;BME280_pressure;Samples;Min_cycle;Max_cycle;Signal;HPM_P1;HPM_P2
2023/01/16 00:00:43;;;;;;;5.38;3.30;;;5.50;99.90;;;;;;5023434;28;20076;-81
2023/01/16 00:03:08;;;;;;;3.75;2.65;;;5.50;99.90;;;;;;5074119;28;20507;-81
2023/01/16 00:05:34;;;;;;;4.10;2.90;;;5.40;99.90;;;;;;5074081;28;20075;-81
2023/01/16 00:08:00;;;;;;;2.88;2.40;;;5.40;99.90;;;;;;5056347;28;20044;-81
2023/01/16 00:10:25;;;;;;;3.22;2.70;;;5.40;99.90;;;;;;5074058;28;20469;-82
2023/01/16 00:12:51;;;;;;;9.00;3.15;;;5.40;99.90;;;;;;5074719;28;20036;-82
2023/01/16 00:15:17;;;;;;;4.13;2.60;;;5.40;99.90;;;;;;5076466;28;20067;-82
2023/01/16 00:17:43;;;;;;;4.13;3.10;;;5.40;99.90;;;;;;5076578;28;20041;-82
2023/01/16 00:20:09;;;;;;;4.45;2.60;;;5.40;99.90;;;;;;5074864;28;20370;-82
2023/01/16 00:22:35;;;;;;;5.80;2.97;;;5.40;99.90;;;;;;5074059;28;20036;-82
2023/01/16 00:25:01;;;;;;;4.78;2.75;;;5.30;99.90;;;;;;5073804;28;20038;-82
2023/01/16 00:27:26;;;;;;;2.88;2.50;;;5.30;99.90;;;;;;5074056;28;20461;-82
2023/01/16 00:29:52;;;;;;;5.22;3.05;;;5.20;99.90;;;;;;5073719;28;20139;-82
2023/01/16 00:32:18;;;;;;;4.22;3.22;;;5.20;99.90;;;;;;5073854;28;20044;-82
2023/01/16 00:34:43;;;;;;;3.65;3.25;;;5.20;99.90;;;;;;5074605;28;20041;-82
2023/01/16 00:37:09;;;;;;;5.82;3.00;;;5.10;99.90;;;;;;5073960;28;20063;-82
2023/01/16 00:39:37;;;;;;;5.40;3.63;;;5.10;99.90;;;;;;5056823;28;20389;-82
2023/01/16 00:42:04;;;;;;;4.55;2.65;;;5.00;99.90;;;;;;5073719;28;20461;-82
2023/01/16 00:44:29;;;;;;;3.22;2.08;;;5.00;99.90;;;;;;5073588;28;20048;-82
2023/01/16 00:46:55;;;;;;;5.05;2.50;;;4.90;99.90;;;;;;5056217;28;20055;-81
2023/01/16 00:49:21;;;;;;;5.18;2.50;;;4.90;99.90;;;;;;5073750;28;20040;-82
2023/01/16 00:51:47;;;;;;;3.97;2.42;;;4.80;99.90;;;;;;5056395;28;20045;-82
2023/01/16 00:54:13;;;;;;;4.32;2.90;;;4.80;99.90;;;;;;5073596;28;20052;-82
2023/01/16 00:56:38;;;;;;;4.30;2.97;;;4.70;99.90;;;;;;5073526;28;20041;-82
2023/01/16 00:59:04;;;;;;;4.35;2.45;;;4.70;99.90;;;;;;5073445;28;20493;-81
2023/01/16 01:01:30;;;;;;;6.30;2.67;;;4.70;99.90;;;;;;5073455;28;20125;-81
2023/01/16 01:03:58;;;;;;;4.97;2.80;;;4.60;99.90;;;;;;5073438;28;20094;-81
2023/01/16 01:06:24;;;;;;;3.80;2.85;;;4.60;99.90;;;;;;5073418;28;20045;-81
2023/01/16 01:08:50;;;;;;;4.32;2.53;;;4.60;99.90;;;;;;5073938;28;20037;-81
2023/01/16 01:11:16;;;;;;;3.50;2.75;;;4.50;99.90;;;;;;5073332;28;20135;-82
2023/01/16 01:13:42;;;;;;;3.42;2.70;;;4.50;99.90;;;;;;5073521;28;20127;-81
2023/01/16 01:16:09;;;;;;;6.10;2.92;;;4.50;99.90;;;;;;5073348;28;20039;-82
2023/01/16 01:18:35;;;;;;;3.63;2.53;;;4.40;99.90;;;;;;5073518;28;20053;-81
2023/01/16 01:21:01;;;;;;;5.72;2.83;;;4.40;99.90;;;;;;5073228;28;20080;-81
2023/01/16 01:23:27;;;;;;;3.83;2.53;;;4.30;99.90;;;;;;5072457;28;20080;-81
2023/01/16 01:25:52;;;;;;;5.10;3.38;;;4.30;99.90;;;;;;5073432;28;20043;-81
2023/01/16 01:28:19;;;;;;;3.95;2.63;;;4.30;99.90;;;;;;5073186;28;20044;-81
2023/01/16 01:30:44;;;;;;;3.72;2.45;;;4.30;99.90;;;;;;5055287;28;20049;-81
2023/01/16 01:33:11;;;;;;;4.05;2.63;;;4.30;99.90;;;;;;5073740;28;20056;-81
2023/01/16 01:35:37;;;;;;;5.30;2.80;;;4.60;99.90;;;;;;5074362;28;20044;-81
2023/01/16 01:38:02;;;;;;;3.53;2.65;;;4.30;99.90;;;;;;5077204;28;20063;-81
2023/01/16 01:40:28;;;;;;;2.63;2.42;;;4.30;99.90;;;;;;5077668;28;20044;-79
2023/01/16 01:42:55;;;;;;;4.60;2.80;;;4.20;99.90;;;;;;5078498;28;20499;-79
2023/01/16 01:45:26;;;;;;;3.08;2.28;;;4.30;99.90;;;;;;5076535;28;20040;-79
2023/01/16 01:48:13;;;;;;;6.03;2.90;;;4.30;99.90;;;;;;5078340;28;20033;-78
2023/01/16 01:50:59;;;;;;;5.78;3.03;;;4.20;99.90;;;;;;5077891;28;20440;-80
2023/01/16 01:53:34;;;;;;;4.90;2.88;;;4.20;99.90;;;;;;5077217;28;20036;-80
2023/01/16 01:56:08;;;;;;;3.65;2.70;;;4.20;99.90;;;;;;5076565;28;20108;-81
2023/01/16 01:58:34;;;;;;;3.78;2.88;;;4.30;99.90;;;;;;5077899;28;20064;-81
2023/01/16 02:01:01;;;;;;;4.00;2.30;;;4.30;99.90;;;;;;5076870;28;20090;-82
2023/01/16 02:03:40;;;;;;;9.20;3.92;;;4.30;99.90;;;;;;5058870;28;20540;-82
2023/01/16 02:06:09;;;;;;;6.88;3.20;;;4.40;99.90;;;;;;5076765;28;20045;-81
2023/01/16 02:08:36;;;;;;;3.72;3.10;;;4.40;99.90;;;;;;5076610;28;20040;-82
2023/01/16 02:11:27;;;;;;;7.22;3.50;;;4.40;99.90;;;;;;5076478;28;20091;-82
2023/01/16 02:14:03;;;;;;;4.90;2.53;;;4.50;99.90;;;;;;5077380;28;20076;-82
2023/01/16 02:19:36;;;;;;;3.17;2.38;;;4.50;99.90;;;;;;5076205;28;20051;-82
2023/01/16 02:22:44;;;;;;;4.28;2.50;;;4.60;99.90;;;;;;5075394;28;20047;-81
2023/01/16 02:25:45;;;;;;;7.72;3.03;;;4.60;99.90;;;;;;5075733;28;20459;-81
2023/01/16 02:28:25;;;;;;;4.70;2.80;;;4.60;99.90;;;;;;5076038;28;20040;-82
2023/01/16 02:30:51;;;;;;;5.88;2.50;;;4.50;99.90;;;;;;5058639;28;20044;-82
2023/01/16 02:33:30;;;;;;;5.13;2.72;;;4.60;99.90;;;;;;5075911;28;20091;-82
2023/01/16 02:36:14;;;;;;;4.68;2.83;;;4.70;99.90;;;;;;5076283;28;20496;-82
2023/01/16 02:38:53;;;;;;;8.00;2.55;;;4.50;99.90;;;;;;5075834;28;20493;-81
2023/01/16 02:41:41;;;;;;;5.57;3.10;;;4.50;99.90;;;;;;5061699;28;20463;-82
2023/01/16 02:44:19;;;;;;;6.07;2.40;;;4.50;99.90;;;;;;5078726;28;20052;-82
2023/01/16 02:46:51;;;;;;;3.95;2.38;;;4.50;99.90;;;;;;5075497;28;20533;-83
2023/01/16 02:49:23;;;;;;;5.38;2.38;;;4.50;99.90;;;;;;5075287;28;20040;-82
2023/01/16 02:52:14;;;;;;;5.90;2.42;;;4.50;99.90;;;;;;5058073;28;20420;-83
2023/01/16 02:54:58;;;;;;;6.70;2.42;;;4.50;99.90;;;;;;5071365;28;20055;-83
2023/01/16 02:57:31;;;;;;;3.78;2.30;;;4.50;99.90;;;;;;5058196;28;20477;-83
2023/01/16 02:59:57;;;;;;;4.50;2.88;;;4.50;99.90;;;;;;5075944;28;20354;-83
2023/01/16 03:02:22;;;;;;;2.97;1.90;;;4.50;99.90;;;;;;5075134;28;20047;-83
2023/01/16 03:04:50;;;;;;;3.40;2.40;;;4.60;99.90;;;;;;5075413;28;20446;-83
2023/01/16 03:07:34;;;;;;;6.05;2.28;;;4.60;99.90;;;;;;5075541;28;20049;-83
2023/01/16 03:10:30;;;;;;;5.30;2.70;;;4.60;99.90;;;;;;5074930;28;20040;-82
2023/01/16 03:13:30;;;;;;;5.50;2.65;;;4.60;99.90;;;;;;5041644;28;20055;-83
2023/01/16 03:16:22;;;;;;;4.43;2.30;;;4.70;99.90;;;;;;5074829;28;20123;-83
2023/01/16 03:18:51;;;;;;;2.08;1.42;;;4.70;99.90;;;;;;5040091;28;20052;-79
2023/01/16 03:21:20;;;;;;;2.60;2.40;;;4.60;99.90;;;;;;5074541;28;20106;-79
2023/01/16 03:23:57;;;;;;;3.17;2.08;;;4.60;99.90;;;;;;5074777;28;20044;-79
2023/01/16 03:26:46;;;;;;;7.10;2.42;;;4.60;99.90;;;;;;5040637;28;20047;-79
2023/01/16 03:29:29;;;;;;;2.42;2.00;;;4.60;99.90;;;;;;5075326;28;20044;-79
2023/01/16 03:32:03;;;;;;;2.50;1.92;;;4.60;99.90;;;;;;5074507;28;20051;-79
2023/01/16 03:34:45;;;;;;;3.53;2.15;;;4.70;99.90;;;;;;5074344;28;20127;-79
2023/01/16 03:37:40;;;;;;;3.40;2.00;;;4.70;99.90;;;;;;5056708;28;20437;-78
2023/01/16 03:40:12;;;;;;;6.88;2.35;;;4.70;99.90;;;;;;5074895;28;20044;-78
2023/01/16 03:42:45;;;;;;;6.20;2.17;;;4.80;99.90;;;;;;5074314;28;20059;-78
2023/01/16 03:45:19;;;;;;;5.25;2.45;;;4.80;99.90;;;;;;5074220;28;20115;-79
2023/01/16 03:48:02;;;;;;;3.97;2.28;;;4.80;99.90;;;;;;5056083;28;20384;-79
2023/01/16 03:50:28;;;;;;;4.50;2.13;;;4.80;99.90;;;;;;5074209;28;20087;-78
2023/01/16 03:53:01;;;;;;;4.13;2.92;;;4.80;99.90;;;;;;5040057;28;20040;-78
2023/01/16 03:55:37;;;;;;;3.85;2.40;;;4.70;99.90;;;;;;5075173;28;20119;-78
2023/01/16 03:58:11;;;;;;;3.75;2.63;;;4.70;99.90;;;;;;5074370;28;20040;-79
2023/01/16 04:01:06;;;;;;;2.88;2.35;;;4.70;99.90;;;;;;5057021;28;20053;-78
2023/01/16 04:03:44;;;;;;;2.90;2.00;;;4.60;99.90;;;;;;5074220;28;20078;-78
2023/01/16 04:06:30;;;;;;;5.68;3.00;;;4.80;99.90;;;;;;5074818;28;20045;-79
2023/01/16 04:08:58;;;;;;;6.88;2.88;;;4.60;99.90;;;;;;5074174;28;20044;-79
2023/01/16 04:11:26;;;;;;;3.88;2.85;;;4.60;99.90;;;;;;5073860;28;20047;-79
2023/01/16 04:13:54;;;;;;;4.72;3.25;;;4.60;99.90;;;;;;5074314;28;20076;-79
2023/01/16 04:16:21;;;;;;;4.93;3.40;;;4.70;99.90;;;;;;5074236;28;20087;-78
2023/01/16 04:18:50;;;;;;;3.85;3.00;;;4.80;99.90;;;;;;5073650;28;20051;-79
2023/01/16 04:21:16;;;;;;;3.00;2.72;;;5.00;99.90;;;;;;5073702;28;20513;-79
2023/01/16 04:23:42;;;;;;;5.78;3.10;;;4.80;99.90;;;;;;5073591;28;20481;-79
2023/01/16 04:26:08;;;;;;;4.53;3.17;;;4.80;99.90;;;;;;5073625;28;20082;-79
2023/01/16 04:28:34;;;;;;;5.75;3.40;;;4.90;99.90;;;;;;5073619;28;20465;-79
2023/01/16 04:30:59;;;;;;;5.10;2.83;;;4.80;99.90;;;;;;5074126;28;20040;-79
2023/01/16 04:33:25;;;;;;;5.03;3.92;;;5.10;99.90;;;;;;5074362;28;20067;-79
2023/01/16 04:35:51;;;;;;;5.20;3.65;;;4.90;99.90;;;;;;5056049;28;20048;-79
2023/01/16 04:38:16;;;;;;;4.18;3.33;;;4.80;99.90;;;;;;5073544;28;20497;-79
2023/01/16 04:40:42;;;;;;;6.78;4.30;;;4.90;99.90;;;;;;5073565;28;20047;-79
2023/01/16 04:43:08;;;;;;;5.22;3.40;;;4.90;99.90;;;;;;5073036;28;20133;-79
2023/01/16 04:45:33;;;;;;;6.63;3.13;;;4.90;99.90;;;;;;5073539;28;20044;-79
2023/01/16 04:47:59;;;;;;;7.65;3.58;;;4.90;99.90;;;;;;5055358;28;20539;-79
2023/01/16 04:50:25;;;;;;;4.07;3.35;;;5.00;99.90;;;;;;5073440;28;20041;-79
2023/01/16 04:52:50;;;;;;;6.45;3.28;;;5.00;99.90;;;;;;5055417;28;20040;-79
2023/01/16 04:55:16;;;;;;;8.20;4.10;;;5.00;99.90;;;;;;5073333;28;20036;-78
2023/01/16 04:57:42;;;;;;;5.68;4.00;;;5.00;99.90;;;;;;5073322;28;20135;-79
2023/01/16 05:00:10;;;;;;;4.32;3.92;;;5.10;99.90;;;;;;5074173;28;20064;-79
2023/01/16 05:02:36;;;;;;;6.57;4.72;;;5.10;99.90;;;;;;5073304;28;20048;-79
2023/01/16 05:05:01;;;;;;;5.72;4.47;;;5.10;99.90;;;;;;5073489;28;20362;-79
2023/01/16 05:07:27;;;;;;;6.80;4.53;;;5.10;99.90;;;;;;5073149;28;20123;-78
2023/01/16 05:09:53;;;;;;;7.47;4.82;;;5.10;99.90;;;;;;5073176;28;20064;-78
2023/01/16 05:12:19;;;;;;;5.80;4.75;;;5.10;99.90;;;;;;5058967;28;20404;-78
2023/01/16 05:14:45;;;;;;;5.68;4.53;;;5.10;99.90;;;;;;5077028;28;20373;-79
2023/01/16 05:17:11;;;;;;;7.63;5.20;;;5.20;99.90;;;;;;5059090;28;20047;-79
2023/01/16 05:19:36;;;;;;;8.43;5.78;;;5.10;99.90;;;;;;5077206;28;20138;-78
2023/01/16 05:22:02;;;;;;;8.52;5.50;;;5.10;99.90;;;;;;5077666;28;20063;-78
2023/01/16 05:24:28;;;;;;;7.85;6.32;;;5.30;99.90;;;;;;5077128;28;20373;-78
2023/01/16 05:26:53;;;;;;;10.98;6.05;;;5.20;99.90;;;;;;5076540;28;20157;-78
2023/01/16 05:29:19;;;;;;;8.52;5.95;;;5.10;99.90;;;;;;5076453;28;20041;-79
2023/01/16 05:31:45;;;;;;;7.55;5.43;;;5.10;99.90;;;;;;5076723;28;20043;-78
2023/01/16 05:34:11;;;;;;;9.23;6.40;;;5.00;99.90;;;;;;5059038;28;20033;-78
2023/01/16 05:36:36;;;;;;;9.13;6.20;;;5.00;99.90;;;;;;5076792;28;20047;-78
2023/01/16 05:39:02;;;;;;;8.68;6.40;;;4.90;99.90;;;;;;5076596;28;20098;-80
2023/01/16 05:41:28;;;;;;;6.72;5.88;;;4.90;99.90;;;;;;5058774;28;20596;-76
2023/01/16 05:43:55;;;;;;;11.02;6.97;;;4.90;99.90;;;;;;5076734;28;20044;-78
2023/01/16 05:46:21;;;;;;;9.05;6.88;;;4.80;99.90;;;;;;5076606;28;20040;-78
2023/01/16 05:48:47;;;;;;;10.55;7.13;;;4.80;99.90;;;;;;5076402;28;20040;-78
2023/01/16 05:51:12;;;;;;;9.85;7.25;;;4.70;99.90;;;;;;5076523;28;20045;-78
2023/01/16 05:53:38;;;;;;;16.00;7.85;;;4.70;99.90;;;;;;5077152;28;20047;-77
2023/01/16 05:56:08;;;;;;;10.02;6.93;;;4.60;99.90;;;;;;5058482;28;20461;-72
2023/01/16 05:58:35;;;;;;;9.80;7.25;;;4.60;99.90;;;;;;5058637;28;20049;-78
2023/01/16 06:01:00;;;;;;;14.90;7.43;;;4.60;99.90;;;;;;5076266;28;20044;-77
2023/01/16 06:03:26;;;;;;;12.98;8.10;;;4.60;99.90;;;;;;5076235;28;20040;-78
2023/01/16 06:05:52;;;;;;;13.02;8.55;;;4.50;99.90;;;;;;5058694;28;20036;-78
2023/01/16 06:08:17;;;;;;;12.88;8.90;;;4.50;99.90;;;;;;5076479;28;20041;-78
2023/01/16 06:10:44;;;;;;;12.75;8.48;;;4.40;99.90;;;;;;5075775;28;20041;-78
2023/01/16 06:13:11;;;;;;;13.98;9.40;;;4.40;99.90;;;;;;5075869;28;20045;-78
2023/01/16 06:15:37;;;;;;;12.90;8.30;;;4.40;99.90;;;;;;5076434;28;20063;-78
2023/01/16 06:18:02;;;;;;;12.35;8.55;;;4.40;99.90;;;;;;5074351;28;20200;-78
2023/01/16 06:20:28;;;;;;;13.88;8.70;;;4.30;99.90;;;;;;5075552;28;20041;-76
2023/01/16 06:22:54;;;;;;;18.05;9.05;;;4.60;99.90;;;;;;5074952;28;20484;-78
2023/01/16 06:25:20;;;;;;;11.80;7.35;;;4.40;99.90;;;;;;5058250;28;20110;-78
2023/01/16 06:27:50;;;;;;;12.20;8.10;;;4.50;99.90;;;;;;5075771;28;20095;-79
2023/01/16 06:30:16;;;;;;;19.50;8.73;;;4.50;99.90;;;;;;5058287;28;20127;-78
2023/01/16 06:32:42;;;;;;;14.27;8.00;;;4.50;99.90;;;;;;5057958;28;20540;-80
2023/01/16 06:35:08;;;;;;;13.38;7.90;;;4.50;99.90;;;;;;5075868;28;20130;-78
2023/01/16 06:37:34;;;;;;;10.07;7.65;;;4.60;99.90;;;;;;5075603;28;20045;-80
2023/01/16 06:40:01;;;;;;;11.32;8.02;;;4.50;99.90;;;;;;5074884;28;20147;-79
2023/01/16 06:42:27;;;;;;;10.02;7.80;;;4.60;99.90;;;;;;5057366;28;20052;-79
2023/01/16 06:44:53;;;;;;;14.63;7.35;;;4.60;99.90;;;;;;5057296;28;20389;-79
2023/01/16 06:47:18;;;;;;;14.27;7.68;;;4.60;99.90;;;;;;5075684;28;20036;-81
2023/01/16 06:49:44;;;;;;;9.57;6.93;;;4.50;99.90;;;;;;5057528;28;20045;-80
2023/01/16 06:52:10;;;;;;;10.10;6.85;;;4.50;99.90;;;;;;5057325;28;20385;-79
2023/01/16 06:54:35;;;;;;;11.30;7.55;;;4.40;99.90;;;;;;5074720;28;20127;-80
2023/01/16 06:57:01;;;;;;;14.30;7.85;;;4.40;99.90;;;;;;5057163;28;20094;-79
2023/01/16 06:59:27;;;;;;;9.93;6.35;;;4.40;99.90;;;;;;5040793;28;20040;-78
2023/01/16 07:01:52;;;;;;;10.57;6.90;;;4.40;99.90;;;;;;5057639;28;20070;-80
2023/01/16 07:04:18;;;;;;;12.32;6.80;;;4.40;99.90;;;;;;5074812;28;20044;-80
2023/01/16 07:06:44;;;;;;;10.27;6.70;;;4.50;99.90;;;;;;5057228;28;20040;-80
2023/01/16 07:09:10;;;;;;;9.23;6.32;;;4.30;99.90;;;;;;5074681;28;20084;-80
2023/01/16 07:11:36;;;;;;;13.93;6.65;;;4.30;99.90;;;;;;5057100;28;20481;-82
2023/01/16 07:25:02;;;;;;;11.57;6.78;;;4.20;99.90;;;;;;5059718;28;20056;-80
2023/01/16 07:27:28;;;;;;;7.90;6.75;;;4.20;99.90;;;;;;5074445;28;20489;-81
2023/01/16 07:29:54;;;;;;;9.63;7.13;;;4.10;99.90;;;;;;5056858;28;20036;-80
2023/01/16 07:32:20;;;;;;;8.20;6.25;;;4.10;99.90;;;;;;5073514;28;20133;-81
2023/01/16 07:34:46;;;;;;;9.95;6.85;;;4.30;99.90;;;;;;5073533;28;20052;-81
2023/01/16 07:37:12;;;;;;;8.98;6.05;;;4.10;99.90;;;;;;5073584;28;20048;-80
2023/01/16 07:39:38;;;;;;;10.63;6.38;;;4.10;99.90;;;;;;5073939;28;20058;-80
2023/01/16 07:42:05;;;;;;;9.90;6.43;;;4.00;99.90;;;;;;5073379;28;20404;-81
2023/01/16 07:44:30;;;;;;;7.65;5.85;;;4.00;99.90;;;;;;5074723;28;20055;-82
2023/01/16 07:46:56;;;;;;;7.47;5.45;;;4.00;99.90;;;;;;5073400;28;20381;-82
2023/01/16 07:49:22;;;;;;;8.18;5.85;;;4.00;99.90;;;;;;5073332;28;20060;-81
2023/01/16 07:51:48;;;;;;;11.80;6.55;;;4.00;99.90;;;;;;5073414;28;20052;-82
2023/01/16 07:54:13;;;;;;;8.75;5.78;;;5.40;99.90;;;;;;5056395;28;20048;-78
2023/01/16 07:56:39;;;;;;;10.85;5.82;;;4.40;99.90;;;;;;5073717;28;20043;-80
2023/01/16 07:59:05;;;;;;;7.32;4.90;;;4.00;99.90;;;;;;5074274;28;20039;-80
2023/01/16 08:01:31;;;;;;;6.25;5.28;;;4.00;99.90;;;;;;5055862;28;20372;-79
2023/01/16 08:03:56;;;;;;;8.55;5.55;;;4.10;99.90;;;;;;5073380;28;20116;-79
2023/01/16 08:06:22;;;;;;;6.10;5.10;;;4.10;99.90;;;;;;5074253;28;20132;-79
2023/01/16 08:08:48;;;;;;;6.65;4.80;;;4.10;99.90;;;;;;5073428;28;20423;-80
2023/01/16 08:13:57;;;;;;;6.88;4.90;;;4.10;99.90;;;;;;5073889;28;20044;-77
2023/01/16 08:16:23;;;;;;;5.35;4.72;;;4.10;99.90;;;;;;5039397;28;20041;-79
2023/01/16 08:18:49;;;;;;;7.35;4.97;;;4.10;99.90;;;;;;5056079;28;20072;-78
2023/01/16 08:21:16;;;;;;;10.68;5.47;;;4.10;99.90;;;;;;5056308;28;20044;-79
2023/01/16 08:23:43;;;;;;;9.00;5.88;;;4.60;99.90;;;;;;5055505;28;20083;-79
2023/01/16 08:26:09;;;;;;;8.45;5.72;;;4.10;99.90;;;;;;5073199;28;20381;-79
2023/01/16 08:28:35;;;;;;;11.90;6.00;;;4.20;99.90;;;;;;5055166;28;20539;-79
2023/01/16 08:31:11;;;;;;;7.32;5.15;;;4.20;99.90;;;;;;5038717;28;20082;-79
2023/01/16 08:33:40;;;;;;;12.75;5.88;;;4.30;99.90;;;;;;5073271;28;20106;-79
2023/01/16 08:36:08;;;;;;;9.15;6.03;;;4.20;99.90;;;;;;5072812;28;20036;-80
2023/01/16 08:38:34;;;;;;;8.25;6.20;;;4.20;99.90;;;;;;5073033;28;20510;-79
2023/01/16 08:41:00;;;;;;;7.88;5.88;;;4.30;99.90;;;;;;5056130;28;20080;-79
2023/01/16 08:51:45;;;;;;;11.25;5.60;;;4.50;99.90;;;;;;5076905;28;20040;-79
2023/01/16 08:54:10;;;;;;;8.48;5.25;;;4.40;99.90;;;;;;5077277;28;20123;-81
2023/01/16 08:56:42;;;;;;;7.10;4.90;;;4.50;99.90;;;;;;5077171;28;20036;-81
2023/01/16 08:59:09;;;;;;;9.93;5.35;;;4.50;99.90;;;;;;5077357;28;20098;-78
2023/01/16 09:01:35;;;;;;;6.70;5.80;;;4.60;99.90;;;;;;5059317;28;20037;-80
2023/01/16 09:04:01;;;;;;;7.70;5.18;;;4.60;99.90;;;;;;5077283;28;20048;-79
2023/01/16 09:06:26;;;;;;;6.95;5.20;;;4.60;99.90;;;;;;5058739;28;20063;-80
2023/01/16 09:08:52;;;;;;;5.35;4.55;;;4.60;99.90;;;;;;5042094;28;20472;-78
2023/01/16 09:14:02;;;;;;;5.70;3.83;;;4.70;99.90;;;;;;5076229;28;20560;-79
2023/01/16 09:16:28;;;;;;;7.00;4.22;;;4.70;99.90;;;;;;5077216;28;20115;-78
2023/01/16 09:18:54;;;;;;;5.50;4.22;;;4.90;99.90;;;;;;5076667;28;20044;-79
2023/01/16 09:21:22;;;;;;;4.13;3.70;;;4.70;99.90;;;;;;5059096;28;20489;-77
2023/01/16 09:23:47;;;;;;;7.05;4.20;;;4.80;99.90;;;;;;5058650;28;20068;-78
2023/01/16 09:26:13;;;;;;;6.82;3.53;;;4.80;99.90;;;;;;5076550;28;20072;-76
2023/01/16 09:28:39;;;;;;;7.38;4.28;;;4.80;99.90;;;;;;5058729;28;20043;-76
2023/01/16 09:31:05;;;;;;;5.63;3.78;;;4.80;99.90;;;;;;5075735;28;20456;-77
2023/01/16 09:33:30;;;;;;;5.65;4.35;;;4.80;99.90;;;;;;5076355;28;20040;-77
2023/01/16 09:35:56;;;;;;;4.85;3.50;;;4.90;99.90;;;;;;5058767;28;20051;-77
2023/01/16 09:38:22;;;;;;;3.70;3.17;;;4.90;99.90;;;;;;5077198;28;20467;-76
2023/01/16 09:40:53;;;;;;;4.35;3.80;;;4.90;99.90;;;;;;5076445;28;20044;-76
2023/01/16 09:43:35;;;;;;;4.07;3.08;;;4.90;99.90;;;;;;5075823;28;20064;-77
2023/01/16 09:46:18;;;;;;;3.78;3.38;;;5.00;99.90;;;;;;5076332;28;20047;-75
2023/01/16 09:48:51;;;;;;;4.70;3.08;;;5.00;99.90;;;;;;5076316;28;20121;-76
2023/01/16 09:51:23;;;;;;;4.43;3.20;;;4.90;99.90;;;;;;5076509;28;20045;-77
2023/01/16 09:59:37;;;;;;;5.10;3.10;;;5.00;99.90;;;;;;5075857;28;20048;-77
2023/01/16 10:02:23;;;;;;;3.53;3.08;;;5.00;99.90;;;;;;5076214;28;20127;-75
2023/01/16 10:04:51;;;;;;;4.80;2.85;;;5.00;99.90;;;;;;5076271;28;20117;-75
2023/01/16 10:07:34;;;;;;;3.88;2.75;;;4.90;99.90;;;;;;5075624;28;20392;-76
2023/01/16 10:10:21;;;;;;;7.00;2.72;;;4.90;99.90;;;;;;5075693;28;20048;-78
2023/01/16 10:13:13;;;;;;;5.53;3.00;;;4.90;99.90;;;;;;5075619;28;20044;-76
2023/01/16 10:15:47;;;;;;;5.63;3.13;;;4.90;99.90;;;;;;5057724;28;20483;-79
2023/01/16 10:18:34;;;;;;;2.97;2.47;;;4.90;99.90;;;;;;5076032;28;20041;-79
2023/01/16 10:21:18;;;;;;;3.67;2.83;;;4.90;99.90;;;;;;5075777;28;20472;-79
2023/01/16 10:23:54;;;;;;;4.05;2.85;;;4.80;99.90;;;;;;5075809;28;20087;-79
2023/01/16 10:26:35;;;;;;;4.80;2.75;;;4.80;99.90;;;;;;5075015;28;20179;-79
2023/01/16 10:29:30;;;;;;;4.50;2.47;;;4.80;99.90;;;;;;5058208;28;20041;-79
2023/01/16 10:31:56;;;;;;;5.47;2.55;;;4.80;99.90;;;;;;5064936;28;20159;-79
2023/01/16 10:34:37;;;;;;;2.63;2.42;;;5.30;99.90;;;;;;5057579;28;20067;-78
2023/01/16 10:37:05;;;;;;;5.40;2.53;;;4.90;99.90;;;;;;5075366;28;20530;-77
2023/01/16 10:39:36;;;;;;;5.78;2.65;;;4.90;99.90;;;;;;5076066;28;20067;-76
2023/01/16 10:50:59;;;;;;;3.35;1.90;;;4.80;99.90;;;;;;5075870;28;20044;-74
2023/01/16 10:53:26;;;;;;;3.42;2.63;;;4.80;99.90;;;;;;5074706;28;20109;-73
2023/01/16 10:55:53;;;;;;;3.42;2.17;;;4.70;99.90;;;;;;5057228;28;20036;-73
2023/01/16 10:58:31;;;;;;;1.90;1.67;;;4.60;99.90;;;;;;5074907;28;20050;-73
2023/01/16 11:01:10;;;;;;;3.22;2.00;;;4.50;99.90;;;;;;5057535;28;20052;-74
2023/01/16 11:03:38;;;;;;;2.13;1.92;;;4.50;99.90;;;;;;5076356;28;20147;-73
2023/01/16 11:06:10;;;;;;;3.28;2.33;;;4.40;99.90;;;;;;5075908;28;20393;-73
2023/01/16 11:08:36;;;;;;;3.05;2.03;;;4.40;99.90;;;;;;5073975;28;20046;-74
2023/01/16 11:11:02;;;;;;;1.70;1.60;;;4.30;99.90;;;;;;5056802;28;20040;-74
2023/01/16 11:18:58;;;;;;;6.05;1.92;;;4.40;99.90;;;;;;5074838;28;20169;-74
2023/01/16 11:21:31;;;;;;;2.35;1.80;;;4.40;99.90;;;;;;5073732;28;20471;-73
2023/01/16 11:24:19;;;;;;;1.83;1.73;;;4.40;99.90;;;;;;5074145;28;20055;-73
2023/01/16 11:26:57;;;;;;;2.22;2.03;;;4.30;99.90;;;;;;5060601;28;20076;-74
2023/01/16 11:29:26;;;;;;;3.67;1.90;;;4.80;99.90;;;;;;5056310;28;20044;-74
2023/01/16 11:31:56;;;;;;;4.25;2.35;;;4.30;99.90;;;;;;5073950;28;20044;-73
2023/01/16 11:34:27;;;;;;;7.20;3.47;;;4.30;99.90;;;;;;5073973;28;20461;-73
2023/01/16 11:36:56;;;;;;;2.83;1.98;;;4.30;99.90;;;;;;5056288;28;20123;-72
2023/01/16 11:39:25;;;;;;;5.65;3.38;;;4.30;99.90;;;;;;5073832;28;20136;-73
2023/01/16 11:41:53;;;;;;;2.10;1.90;;;4.30;99.90;;;;;;5074319;28;20043;-72
2023/01/16 11:47:15;;;;;;;3.58;2.33;;;4.30;99.90;;;;;;5073815;28;20045;-72
2023/01/16 11:49:47;;;;;;;3.10;2.10;;;4.30;99.90;;;;;;5073479;28;20044;-72
2023/01/16 11:52:28;;;;;;;2.65;2.38;;;4.30;99.90;;;;;;5056231;28;20060;-73
2023/01/16 11:55:00;;;;;;;1.90;1.80;;;4.30;99.90;;;;;;5073767;28;20480;-73
2023/01/16 11:57:34;;;;;;;2.42;2.08;;;4.30;99.90;;;;;;5073933;28;20462;-73
2023/01/16 12:00:12;;;;;;;3.55;2.22;;;4.40;99.90;;;;;;5074465;28;20044;-74
2023/01/16 12:02:58;;;;;;;2.13;1.92;;;4.30;99.90;;;;;;5074355;28;20071;-73
2023/01/16 12:06:03;;;;;;;2.70;2.40;;;4.40;99.90;;;;;;5073595;28;20052;-73
2023/01/16 12:08:47;;;;;;;2.78;2.58;;;4.30;99.90;;;;;;5073804;28;20051;-73
2023/01/16 12:11:15;;;;;;;3.60;2.08;;;4.30;99.90;;;;;;5074384;28;20082;-73
2023/01/16 12:17:02;;;;;;;2.80;2.60;;;4.40;99.90;;;;;;5073502;28;20047;-73
2023/01/16 12:19:58;;;;;;;2.40;2.20;;;4.40;99.90;;;;;;5060654;28;20053;-74
2023/01/16 12:22:57;;;;;;;4.43;2.55;;;4.40;99.90;;;;;;5056743;28;20464;-73
2023/01/16 12:25:41;;;;;;;3.40;2.50;;;4.50;99.90;;;;;;5073499;28;20051;-73
2023/01/16 12:28:46;;;;;;;2.92;2.30;;;4.40;99.90;;;;;;5074048;28;20040;-74
2023/01/16 12:31:46;;;;;;;5.75;2.72;;;4.50;99.90;;;;;;5073193;28;20080;-73
2023/01/16 12:34:34;;;;;;;2.35;2.15;;;4.60;99.90;;;;;;5055569;28;20398;-73
2023/01/16 12:37:28;;;;;;;2.83;2.47;;;4.60;99.90;;;;;;5073394;28;20036;-74
2023/01/16 12:40:21;;;;;;;;;;;4.70;99.90;;;;;;5073923;28;20040;-74
2023/01/16 12:43:19;;;;;;;2.50;2.40;;;4.60;99.90;;;;;;5074005;28;19916;-74
2023/01/16 12:45:52;;;;;;;4.28;2.85;;;4.70;99.90;;;;;;5073363;28;20052;-74
2023/01/16 12:48:39;;;;;;;3.85;2.67;;;4.80;99.90;;;;;;5073229;28;20123;-72
2023/01/16 12:51:40;;;;;;;4.70;2.80;;;4.80;99.90;;;;;;5055718;28;20052;-74
2023/01/16 12:54:27;;;;;;;3.30;2.70;;;4.80;99.90;;;;;;5074222;28;20117;-73
2023/01/16 12:57:02;;;;;;;3.08;2.65;;;4.80;99.90;;;;;;5073967;28;20039;-74
2023/01/16 12:59:34;;;;;;;3.58;2.90;;;4.80;99.90;;;;;;5073249;28;20047;-73
2023/01/16 13:02:19;;;;;;;3.15;2.75;;;4.80;99.90;;;;;;5055817;28;20041;-74
2023/01/16 13:04:55;;;;;;;3.13;2.53;;;4.80;99.90;;;;;;5073195;28;20041;-80
2023/01/16 13:07:25;;;;;;;4.53;2.72;;;4.80;99.90;;;;;;5074241;28;20084;-80
2023/01/16 13:15:50;;;;;;;6.18;3.00;;;4.90;99.90;;;;;;5073183;28;20051;-79
2023/01/16 13:18:36;;;;;;;3.40;3.10;;;4.90;99.90;;;;;;5055232;28;20051;-79
2023/01/16 13:21:05;;;;;;;3.85;3.10;;;4.90;99.90;;;;;;5055784;28;20492;-79
2023/01/16 13:23:42;;;;;;;3.28;3.08;;;4.90;99.90;;;;;;5072985;28;20040;-77
2023/01/16 13:26:11;;;;;;;4.75;2.90;;;4.90;99.90;;;;;;5073406;28;20048;-74
2023/01/16 13:29:28;;;;;;;2.83;2.63;;;4.90;99.90;;;;;;5073427;28;20127;-74
2023/01/16 13:32:13;;;;;;;2.95;2.70;;;4.90;99.90;;;;;;4992915;28;20047;-74
2023/01/16 13:34:47;;;;;;;3.50;3.20;;;4.90;99.90;;;;;;4995860;28;20109;-75
2023/01/16 13:37:36;;;;;;;3.42;2.75;;;4.90;99.90;;;;;;5054305;28;20052;-76
2023/01/16 13:40:28;;;;;;;3.78;2.70;;;5.00;99.90;;;;;;5075963;28;20428;-77
2023/01/16 13:45:47;;;;;;;4.45;3.72;;;5.00;99.90;;;;;;5076641;28;20036;-76
2023/01/16 13:45:52;;;;;;;3.63;2.80;;;5.00;99.90;;;;;;5077002;28;20106;-75
2023/01/16 13:48:27;;;;;;;3.10;2.78;;;5.00;99.90;;;;;;5076819;28;20106;-75
2023/01/16 13:51:01;;;;;;;3.03;2.50;;;5.00;99.90;;;;;;5042001;28;20135;-74
2023/01/16 13:53:29;;;;;;;2.90;2.47;;;5.00;99.90;;;;;;5059036;28;20123;-75
2023/01/16 13:56:15;;;;;;;4.63;2.80;;;5.10;99.90;;;;;;5075846;28;20044;-75
2023/01/16 13:58:46;;;;;;;3.45;2.50;;;5.10;99.90;;;;;;5076688;28;20036;-75
2023/01/16 14:01:55;;;;;;;2.47;2.25;;;5.10;99.90;;;;;;5076230;28;20040;-75
2023/01/16 14:04:21;;;;;;;2.78;2.58;;;5.10;99.90;;;;;;5076549;28;20045;-77
2023/01/16 14:10:15;;;;;;;3.50;3.20;;;5.10;99.90;;;;;;5075974;28;20148;-77
2023/01/16 14:12:42;;;;;;;3.40;2.50;;;5.10;99.90;;;;;;5076300;28;20051;-77
2023/01/16 14:18:15;;;;;;;3.17;2.33;;;5.10;99.90;;;;;;5075598;28;20055;-77
2023/01/16 14:20:42;;;;;;;4.43;2.35;;;5.10;99.90;;;;;;5076652;28;20169;-77
2023/01/16 14:26:07;;;;;;;2.80;2.47;;;5.10;99.90;;;;;;5076313;28;20041;-76
2023/01/16 14:28:34;;;;;;;3.03;2.38;;;5.20;99.90;;;;;;5058744;28;20044;-76